Time;durP1;ratioP1;P1;durP2;ratioP2;P2;SDS_P1;SDS_P2;PMS_P1;PMS_P2;Temp;Humidity;BMP_temperature;BMP_pressure;BME280_temperature;BME280_humidity;BME280_pressure;Samples;Min_cycle;Max_cycle;Signal;HPM_P1;HPM_P2
2022/07/22 00:02:15;;;;;;;5.15;3.65;;;;;;;25.29;49.61;99611.44;5089266;28;20020;-36
2022/07/22 00:04:41;;;;;;;5.38;4.00;;;;;;;25.39;49.73;99618.59;5089200;28;20063;-36
2022/07/22 00:07:06;;;;;;;6.85;4.00;;;;;;;25.33;49.50;99626.06;5092356;28;20078;-36
2022/07/22 00:09:33;;;;;;;7.55;4.07;;;;;;;25.40;49.24;99615.56;5093235;28;20020;-37
2022/07/22 00:11:58;;;;;;;5.85;3.92;;;;;;;25.32;49.36;99625.25;5093834;28;20016;-36
2022/07/22 00:14:24;;;;;;;6.70;3.83;;;;;;;25.33;49.54;99629.56;5093562;28;20458;-37
2022/07/22 00:16:49;;;;;;;8.13;4.22;;;;;;;25.22;49.96;99628.16;5093414;28;20039;-36
2022/07/22 00:19:15;;;;;;;10.80;4.20;;;;;;;25.37;49.23;99629.78;5093335;28;20504;-36
2022/07/22 00:21:40;;;;;;;8.35;3.95;;;;;;;25.33;49.41;99632.31;5093779;28;20177;-36
2022/07/22 00:24:06;;;;;;;6.85;3.70;;;;;;;25.34;49.50;99625.75;5093268;28;20032;-37
2022/07/22 00:26:31;;;;;;;7.10;4.30;;;;;;;25.07;50.20;99637.41;5093860;28;20044;-36
2022/07/22 00:28:57;;;;;;;8.65;4.50;;;;;;;25.18;49.87;99636.09;5092905;28;20044;-37
2022/07/22 00:31:22;;;;;;;6.47;4.10;;;;;;;25.26;49.95;99633.81;5093046;28;20024;-38
2022/07/22 00:33:48;;;;;;;6.53;4.13;;;;;;;25.20;50.26;99633.09;5092898;28;20034;-37
2022/07/22 00:36:13;;;;;;;7.13;4.05;;;;;;;25.29;50.21;99630.50;5092962;28;20356;-35
2022/07/22 00:38:39;;;;;;;8.35;4.10;;;;;;;25.25;50.07;99632.22;5092811;28;20024;-36
2022/07/22 00:41:04;;;;;;;5.70;4.20;;;;;;;25.25;50.29;99637.69;5092756;28;20023;-36
2022/07/22 00:43:54;;;;;;;8.73;4.53;;;;;;;24.97;51.08;99645.81;5092762;28;20089;-38
2022/07/22 00:46:19;;;;;;;7.35;4.20;;;;;;;24.87;51.71;99644.09;5093357;28;20012;-44
2022/07/22 00:48:45;;;;;;;5.70;4.30;;;;;;;24.79;51.96;99639.34;5093003;28;20061;-43
2022/07/22 00:51:10;;;;;;;7.43;4.72;;;;;;;24.92;51.34;99643.16;5092730;28;20052;-43
2022/07/22 00:53:36;;;;;;;9.63;4.82;;;;;;;24.97;51.18;99641.16;5091397;28;20032;-41
2022/07/22 00:56:03;;;;;;;6.32;4.80;;;;;;;25.00;50.80;99644.38;5092756;28;20596;-43
2022/07/22 00:58:28;;;;;;;7.18;4.93;;;;;;;24.83;51.18;99628.63;5092926;28;20016;-43
2022/07/22 01:00:54;;;;;;;9.15;4.90;;;;;;;24.89;51.37;99636.41;5091906;28;20032;-44
2022/07/22 01:03:20;;;;;;;9.32;4.35;;;;;;;24.92;51.13;99637.72;5091545;28;20031;-36
2022/07/22 01:05:45;;;;;;;6.68;4.60;;;;;;;24.82;51.39;99641.44;5093011;28;20092;-37
2022/07/22 01:08:12;;;;;;;9.52;4.80;;;;;;;24.78;51.32;99645.88;5092130;28;20418;-37
2022/07/22 01:10:37;;;;;;;8.93;4.90;;;;;;;24.84;51.18;99644.66;5092465;28;20032;-37
2022/07/22 01:13:02;;;;;;;9.15;4.93;;;;;;;24.79;51.26;99644.78;5091992;28;20031;-37
2022/07/22 01:15:28;;;;;;;9.93;4.65;;;;;;;24.94;51.18;99644.50;5092167;28;20023;-36
2022/07/22 01:17:53;;;;;;;7.13;4.65;;;;;;;24.91;51.35;99647.81;5091311;28;20024;-37
2022/07/22 01:20:19;;;;;;;6.88;4.78;;;;;;;24.88;51.57;99642.16;5092646;28;20024;-37
2022/07/22 01:22:44;;;;;;;8.75;4.70;;;;;;;24.84;51.68;99647.41;5092360;28;20024;-36
2022/07/22 01:25:11;;;;;;;11.27;5.53;;;;;;;24.89;51.29;99649.22;5092309;28;20020;-36
2022/07/22 01:27:36;;;;;;;12.85;5.53;;;;;;;24.87;51.17;99652.25;5086905;28;20028;-36
2022/07/22 01:30:04;;;;;;;7.38;5.18;;;;;;;24.89;51.41;99652.75;5071765;28;20051;-37
2022/07/22 01:32:30;;;;;;;7.25;5.35;;;;;;;24.85;51.50;99651.75;5071526;28;20036;-37
2022/07/22 01:34:56;;;;;;;13.10;5.68;;;;;;;24.80;51.61;99654.53;5071709;28;20028;-36
2022/07/22 01:37:21;;;;;;;12.60;5.60;;;;;;;24.67;51.91;99644.44;5071826;28;20145;-36
2022/07/22 01:39:48;;;;;;;8.95;5.47;;;;;;;24.66;52.25;99645.56;5071288;28;20035;-37
2022/07/22 01:42:13;;;;;;;10.80;5.00;;;;;;;24.29;52.37;99645.31;5071775;28;20027;-37
2022/07/22 01:44:38;;;;;;;12.52;5.28;;;;;;;24.40;52.27;99635.91;5071576;28;20031;-36
2022/07/22 01:47:04;;;;;;;12.38;5.50;;;;;;;24.51;52.37;99638.44;5071789;28;20016;-37
2022/07/22 01:49:30;;;;;;;11.27;5.40;;;;;;;24.62;51.64;99639.09;5071490;28;20078;-37
2022/07/22 01:51:55;;;;;;;8.60;5.05;;;;;;;24.67;51.91;99634.38;5071781;28;20205;-37
2022/07/22 01:54:21;;;;;;;9.40;5.00;;;;;;;24.70;51.67;99636.50;5070915;28;20016;-37
2022/07/22 01:56:46;;;;;;;11.27;4.95;;;;;;;24.63;52.06;99636.06;5071380;28;20028;-37
2022/07/22 01:59:12;;;;;;;11.73;5.20;;;;;;;24.60;52.08;99631.25;5071205;28;20452;-35
2022/07/22 02:01:37;;;;;;;8.40;4.90;;;;;;;24.81;51.63;99639.84;5071141;28;20031;-35
2022/07/22 02:04:03;;;;;;;14.45;4.95;;;;;;;24.59;52.16;99635.06;5071168;28;20030;-38
2022/07/22 02:06:30;;;;;;;9.60;4.50;;;;;;;24.84;51.36;99635.72;5071250;28;20028;-38
2022/07/22 02:08:55;;;;;;;7.93;4.70;;;;;;;24.97;51.41;99632.19;5071132;28;20667;-37
2022/07/22 02:11:21;;;;;;;7.70;4.90;;;;;;;24.77;51.33;99636.91;5071045;28;20108;-37
2022/07/22 02:13:46;;;;;;;7.60;4.72;;;;;;;24.86;51.12;99631.56;5070769;28;20078;-38
2022/07/22 02:16:12;;;;;;;7.60;4.57;;;;;;;24.93;50.95;99631.19;5070594;28;20029;-38
2022/07/22 02:18:37;;;;;;;8.85;4.30;;;;;;;24.96;51.08;99636.03;5071099;28;20057;-37
2022/07/22 02:21:03;;;;;;;7.97;4.40;;;;;;;24.82;51.35;99627.84;5071062;28;20028;-37
2022/07/22 02:23:29;;;;;;;8.55;4.53;;;;;;;24.77;51.44;99626.03;5070858;28;20032;-37
2022/07/22 02:25:55;;;;;;;5.90;4.40;;;;;;;24.78;51.64;99627.63;5070847;28;20078;-35
2022/07/22 02:28:20;;;;;;;10.50;4.82;;;;;;;24.81;51.63;99634.41;5079330;28;20748;-35
2022/07/22 02:30:46;;;;;;;14.07;5.25;;;;;;;24.57;51.94;99631.84;5090152;28;20164;-37
2022/07/22 02:33:11;;;;;;;11.18;4.93;;;;;;;24.51;52.31;99620.25;5090058;28;20585;-37
2022/07/22 02:35:37;;;;;;;12.32;4.93;;;;;;;24.63;51.83;99625.19;5090563;28;20069;-37
2022/07/22 02:38:04;;;;;;;13.57;5.05;;;;;;;24.78;51.44;99626.84;5090242;28;20020;-37
2022/07/22 02:40:30;;;;;;;13.07;4.90;;;;;;;24.49;52.95;99613.47;5090842;28;20458;-37
2022/07/22 02:42:55;;;;;;;15.05;4.88;;;;;;;24.39;53.31;99619.91;5090732;28;20118;-37
2022/07/22 02:45:20;;;;;;;10.00;4.78;;;;;;;24.57;52.42;99621.75;5090586;28;20020;-37
2022/07/22 02:47:48;;;;;;;9.35;5.05;;;;;;;24.39;53.26;99631.56;5090694;28;20053;-37
2022/07/22 02:50:13;;;;;;;10.38;4.90;;;;;;;24.44;53.28;99619.00;5090467;28;20055;-37
2022/07/22 02:52:38;;;;;;;10.02;4.97;;;;;;;24.36;53.33;99623.19;5090750;28;20032;-37
2022/07/22 02:55:05;;;;;;;9.82;4.88;;;;;;;24.38;52.85;99615.56;5090447;28;20486;-37
2022/07/22 02:57:31;;;;;;;12.80;4.70;;;;;;;24.37;53.12;99613.94;5090102;28;20483;-37
2022/07/22 02:59:56;;;;;;;12.40;5.60;;;;;;;24.39;53.02;99615.25;5090154;28;20024;-36
2022/07/22 03:02:22;;;;;;;7.70;4.85;;;;;;;24.45;52.92;99607.81;5090240;28;20676;-37
2022/07/22 03:04:47;;;;;;;10.13;5.10;;;;;;;24.32;53.06;99606.69;5090173;28;20061;-36
2022/07/22 03:07:12;;;;;;;43.90;31.48;;;;;;;24.22;53.74;99614.19;5090364;28;20016;-37
2022/07/22 03:09:38;;;;;;;10.68;4.95;;;;;;;24.13;54.11;99614.06;5090059;28;20031;-37
2022/07/22 03:12:04;;;;;;;8.93;5.10;;;;;;;23.86;54.73;99621.00;5089879;28;20035;-37
2022/07/22 03:14:29;;;;;;;9.52;5.03;;;;;;;23.75;54.93;99620.31;5089720;28;20027;-37
2022/07/22 03:16:54;;;;;;;8.32;4.95;;;;;;;23.68;55.39;99614.44;5089940;28;20077;-36
2022/07/22 03:19:20;;;;;;;10.73;5.13;;;;;;;23.55;55.67;99612.44;5089926;28;20020;-36
2022/07/22 03:21:45;;;;;;;12.48;5.18;;;;;;;23.57;55.77;99616.50;5090110;28;20107;-35
2022/07/22 03:24:11;;;;;;;11.73;5.13;;;;;;;23.59;55.81;99618.94;5089895;28;20026;-37
2022/07/22 03:26:36;;;;;;;16.55;5.45;;;;;;;23.65;55.26;99615.03;5089881;28;20108;-36
2022/07/22 03:29:02;;;;;;;10.70;4.82;;;;;;;23.53;55.80;99630.94;5089670;28;20048;-37
2022/07/22 03:31:27;;;;;;;12.30;5.40;;;;;;;23.48;56.24;99620.16;5089343;28;20368;-37
2022/07/22 03:33:53;;;;;;;15.02;5.00;;;;;;;23.70;55.91;99633.97;5089705;28;20092;-36
2022/07/22 03:36:18;;;;;;;14.50;5.68;;;;;;;23.78;55.74;99627.91;5089617;28;20024;-36
2022/07/22 03:38:44;;;;;;;11.85;5.68;;;;;;;23.87;55.89;99629.97;5073672;28;20123;-36
2022/07/22 03:41:09;;;;;;;22.83;16.08;;;;;;;23.84;55.78;99634.09;5068982;28;20624;-36
2022/07/22 03:43:35;;;;;;;10.82;6.97;;;;;;;24.02;55.31;99635.16;5069672;28;20023;-37
2022/07/22 03:46:00;;;;;;;12.65;7.50;;;;;;;23.90;55.11;99629.38;5069473;28;20448;-37
2022/07/22 03:48:26;;;;;;;13.85;6.95;;;;;;;23.89;54.96;99627.75;5069490;28;20035;-36
2022/07/22 03:50:51;;;;;;;9.43;6.32;;;;;;;24.05;54.55;99629.16;5069159;28;20416;-37
2022/07/22 03:53:17;;;;;;;11.05;6.28;;;;;;;24.33;53.55;99643.66;5068729;28;20020;-37
2022/07/22 03:55:42;;;;;;;12.15;6.40;;;;;;;24.58;53.01;99637.00;5069017;28;20572;-35
2022/07/22 03:58:08;;;;;;;15.98;6.68;;;;;;;24.77;52.91;99641.56;5083568;28;20108;-35
2022/07/22 04:00:34;;;;;;;14.40;6.38;;;;;;;24.87;52.37;99646.00;5085623;28;20032;-36
2022/07/22 04:02:59;;;;;;;17.60;7.07;;;;;;;25.06;51.58;99657.59;5069380;28;20080;-35
2022/07/22 04:05:25;;;;;;;13.85;7.15;;;;;;;25.29;51.18;99646.84;5069711;28;20020;-36
2022/07/22 04:07:50;;;;;;;12.98;6.70;;;;;;;25.49;50.26;99651.03;5079205;28;20666;-44
2022/07/22 04:10:16;;;;;;;9.63;6.53;;;;;;;25.54;50.07;99657.19;5089547;28;20024;-44
2022/07/22 04:12:41;;;;;;;13.35;6.95;;;;;;;25.92;48.93;99645.22;5089036;28;20054;-42
2022/07/22 04:15:07;;;;;;;15.02;6.85;;;;;;;25.82;49.29;99648.16;5089072;28;20020;-42
2022/07/22 04:17:34;;;;;;;9.52;6.55;;;;;;;26.13;48.33;99643.63;5089532;28;20047;-44
2022/07/22 04:20:00;;;;;;;19.60;9.70;;;;;;;26.08;48.82;99651.94;5089639;28;20468;-42
2022/07/22 04:22:26;;;;;;;13.32;6.90;;;;;;;26.19;48.43;99655.22;5089588;28;20028;-42
2022/07/22 04:24:52;;;;;;;10.15;6.70;;;;;;;26.18;48.36;99648.16;5088950;28;20188;-42
2022/07/22 04:27:17;;;;;;;9.98;6.85;;;;;;;26.43;47.46;99651.38;5089380;28;20483;-43
2022/07/22 04:29:43;;;;;;;8.65;6.25;;;;;;;26.71;47.02;99652.03;5089007;28;20384;-43
2022/07/22 04:32:08;;;;;;;47.85;32.83;;;;;;;26.81;46.49;99651.75;5088915;28;20074;-44
2022/07/22 04:34:33;;;;;;;15.68;9.45;;;;;;;26.88;46.38;99654.03;5088390;28;20103;-44
2022/07/22 04:36:59;;;;;;;10.75;6.75;;;;;;;27.23;45.23;99652.25;5082883;28;20028;-42
2022/07/22 04:39:24;;;;;;;12.82;6.40;;;;;;;27.35;45.27;99659.06;5087188;28;20023;-43
2022/07/22 04:41:50;;;;;;;13.05;7.00;;;;;;;27.64;44.11;99656.53;5079397;28;20016;-42
2022/07/22 04:44:15;;;;;;;12.20;7.40;;;;;;;27.74;44.22;99662.81;5079124;28;20024;-43
2022/07/22 04:46:40;;;;;;;11.07;7.05;;;;;;;27.72;44.19;99663.16;5082565;28;20044;-42
2022/07/22 04:49:06;;;;;;;13.88;6.95;;;;;;;27.43;44.52;99667.25;5068490;28;20574;-43
2022/07/22 04:51:31;;;;;;;14.73;7.50;;;;;;;27.45;44.91;99665.00;5068359;28;20048;-43
2022/07/22 04:53:57;;;;;;;11.45;6.97;;;;;;;27.89;43.76;99659.63;5076672;28;20047;-43
2022/07/22 04:56:22;;;;;;;12.82;6.80;;;;;;;28.12;43.54;99660.28;5081589;28;20106;-43
2022/07/22 04:58:47;;;;;;;15.88;7.00;;;;;;;28.13;43.68;99661.09;5080619;28;20169;-42
2022/07/22 05:01:13;;;;;;;15.15;7.40;;;;;;;28.39;42.70;99661.06;5089078;28;20027;-43
2022/07/22 05:03:40;;;;;;;10.15;6.40;;;;;;;28.71;41.93;99664.38;5092080;28;20028;-43
2022/07/22 05:06:05;;;;;;;9.90;6.53;;;;;;;29.01;40.94;99660.56;5092346;28;20015;-42
2022/07/22 05:08:31;;;;;;;13.15;6.70;;;;;;;29.15;41.18;99665.84;5089329;28;20062;-43
2022/07/22 05:10:56;;;;;;;11.93;6.72;;;;;;;29.00;41.59;99669.13;5077245;28;20475;-42
2022/07/22 05:13:22;;;;;;;12.05;6.85;;;;;;;29.26;40.70;99663.53;5080336;28;20023;-43
2022/07/22 05:15:48;;;;;;;11.45;6.32;;;;;;;29.82;39.54;99672.38;5081303;28;20103;-43
2022/07/22 05:18:13;;;;;;;13.38;7.10;;;;;;;30.17;38.47;99661.13;5089961;28;20506;-44
2022/07/22 05:20:39;;;;;;;12.48;6.85;;;;;;;30.01;39.80;99660.94;5091119;28;20102;-43
2022/07/22 05:23:04;;;;;;;14.10;6.95;;;;;;;30.14;39.11;99660.97;5083182;28;20021;-42
2022/07/22 05:25:29;;;;;;;18.73;7.63;;;;;;;30.63;38.08;99663.91;5084889;28;20016;-42
2022/07/22 05:27:56;;;;;;;12.43;7.35;;;;;;;30.24;38.80;99668.03;5076663;28;20038;-43
2022/07/22 05:30:22;;;;;;;13.68;7.30;;;;;;;30.35;38.96;99661.00;5088382;28;20118;-43
2022/07/22 05:32:47;;;;;;;12.43;7.22;;;;;;;30.96;37.52;99660.34;5089784;28;20103;-43
2022/07/22 05:35:13;;;;;;;11.23;7.45;;;;;;;30.34;38.93;99667.63;5090469;28;20077;-43
2022/07/22 05:37:38;;;;;;;14.15;6.70;;;;;;;30.50;39.31;99659.53;5089351;28;20020;-43
2022/07/22 05:40:05;;;;;;;13.98;6.80;;;;;;;30.53;38.34;99656.13;5090873;28;20031;-43
2022/07/22 05:42:30;;;;;;;13.82;6.43;;;;;;;30.84;38.43;99655.59;5090901;28;20239;-43
2022/07/22 05:44:55;;;;;;;16.73;7.30;;;;;;;31.19;37.72;99660.69;5090972;28;20480;-42
2022/07/22 05:47:21;;;;;;;13.07;7.38;;;;;;;31.46;37.07;99655.63;5089098;28;20103;-44
2022/07/22 05:49:47;;;;;;;12.93;7.53;;;;;;;31.05;38.12;99654.72;5089803;28;20035;-43
2022/07/22 05:52:12;;;;;;;13.02;7.45;;;;;;;31.35;38.05;99649.78;5090459;28;20492;-43
2022/07/22 05:54:39;;;;;;;17.33;7.88;;;;;;;31.34;37.55;99646.25;5090565;28;20668;-44
2022/07/22 05:57:08;;;;;;;15.38;7.97;;;;;;;31.75;37.10;99652.59;5090650;28;20028;-45
2022/07/22 05:59:33;;;;;;;16.35;9.25;;;;;;;31.73;36.42;99649.41;5090432;28;20032;-45
2022/07/22 06:01:59;;;;;;;20.17;8.38;;;;;;;32.61;35.10;99654.22;5090606;28;20089;-45
2022/07/22 06:04:24;;;;;;;18.38;9.02;;;;;;;32.15;35.56;99645.50;5090097;28;20080;-46
2022/07/22 06:06:49;;;;;;;20.05;8.82;;;;;;;32.32;35.23;99649.88;5090538;28;20023;-43
2022/07/22 06:09:15;;;;;;;16.75;8.88;;;;;;;32.20;35.49;99652.72;5090823;28;20027;-43
2022/07/22 06:11:40;;;;;;;13.40;9.25;;;;;;;32.27;35.95;99648.22;5090550;28;20027;-44
2022/07/22 06:14:06;;;;;;;14.02;8.27;;;;;;;32.39;35.35;99646.53;5090901;28;20689;-44
2022/07/22 06:16:32;;;;;;;19.95;9.13;;;;;;;33.17;33.83;99646.94;5091115;28;20039;-45
2022/07/22 06:18:58;;;;;;;13.70;9.13;;;;;;;33.39;33.22;99648.25;5090630;28;20050;-45
2022/07/22 06:21:23;;;;;;;16.63;9.20;;;;;;;32.90;34.57;99650.25;5090366;28;20476;-43
2022/07/22 06:23:49;;;;;;;16.05;8.88;;;;;;;33.16;33.39;99648.09;5090714;28;20036;-43
2022/07/22 06:26:14;;;;;;;16.63;8.65;;;;;;;33.23;33.04;99646.31;5090475;28;20016;-48
2022/07/22 06:28:40;;;;;;;18.25;8.95;;;;;;;33.66;32.15;99644.56;5088520;28;20111;-44
2022/07/22 06:31:05;;;;;;;17.77;8.88;;;;;;;33.99;32.02;99650.72;5089765;28;20027;-44
2022/07/22 06:33:33;;;;;;;17.90;8.65;;;;;;;35.25;29.91;99639.94;5089351;28;20024;-45
2022/07/22 06:35:58;;;;;;;20.20;9.17;;;;;;;34.54;31.27;99642.28;5089779;28;20165;-42
2022/07/22 06:38:24;;;;;;;15.73;8.82;;;;;;;34.46;31.46;99635.84;5083363;28;20061;-44
2022/07/22 06:40:49;;;;;;;13.05;8.00;;;;;;;34.53;31.62;99633.22;5069612;28;20032;-43
2022/07/22 06:43:15;;;;;;;22.80;9.85;;;;;;;34.77;30.92;99634.84;5069312;28;20020;-44
2022/07/22 06:45:40;;;;;;;22.67;9.43;;;;;;;34.84;31.38;99623.91;5069329;28;20031;-43
2022/07/22 06:48:06;;;;;;;16.08;8.40;;;;;;;35.47;30.70;99640.25;5069479;28;20125;-43
2022/07/22 06:50:32;;;;;;;19.40;8.77;;;;;;;34.99;31.10;99635.97;5069510;28;20075;-43
2022/07/22 06:52:57;;;;;;;18.02;8.25;;;;;;;35.30;30.19;99642.41;5069659;28;20063;-43
2022/07/22 06:55:23;;;;;;;16.67;9.32;;;;;;;35.37;28.26;99634.19;5069310;28;20039;-43
2022/07/22 06:57:48;;;;;;;16.45;9.73;;;;;;;35.52;28.52;99646.25;5069682;28;20032;-42
2022/07/22 07:00:14;;;;;;;13.43;7.07;;;;;;;35.74;28.63;99632.75;5089595;28;20551;-42
2022/07/22 07:02:40;;;;;;;18.52;10.15;;;;;;;35.94;27.95;99636.91;5089776;28;20753;-44
2022/07/22 07:05:05;;;;;;;11.82;7.10;;;;;;;35.62;28.32;99642.84;5089442;28;20115;-42
2022/07/22 07:07:31;;;;;;;13.00;7.10;;;;;;;35.36;28.51;99638.13;5089341;28;20028;-42
2022/07/22 07:09:56;;;;;;;15.07;7.50;;;;;;;35.63;28.10;99638.09;5089378;28;20032;-43
2022/07/22 07:12:22;;;;;;;12.60;7.57;;;;;;;35.59;28.06;99632.53;5089383;28;20038;-37
2022/07/22 07:14:47;;;;;;;12.70;6.82;;;;;;;36.25;27.50;99634.91;5089586;28;20449;-38
2022/07/22 07:17:15;;;;;;;10.68;6.60;;;;;;;36.31;27.19;99638.13;5088760;28;20062;-38
2022/07/22 07:19:41;;;;;;;14.70;8.10;;;;;;;35.50;28.53;99633.97;5079018;28;20031;-38
2022/07/22 07:22:06;;;;;;;9.75;5.90;;;;;;;35.77;28.93;99643.81;5089440;28;20028;-38
2022/07/22 07:24:32;;;;;;;9.32;5.57;;;;;;;36.31;28.03;99640.91;5089263;28;20096;-35
2022/07/22 07:26:57;;;;;;;8.98;5.65;;;;;;;36.77;27.01;99640.56;5089131;28;20035;-36
2022/07/22 07:29:22;;;;;;;9.60;5.50;;;;;;;38.05;25.09;99652.84;5089150;28;20600;-38
2022/07/22 07:31:48;;;;;;;9.27;5.38;;;;;;;37.72;25.84;99647.16;5089058;28;20518;-36
2022/07/22 07:34:13;;;;;;;8.68;5.63;;;;;;;37.25;26.06;99640.53;5089127;28;20032;-35
2022/07/22 07:36:39;;;;;;;9.95;5.63;;;;;;;36.96;26.25;99634.78;5088872;28;20476;-38
2022/07/22 07:39:04;;;;;;;8.48;5.18;;;;;;;37.07;26.55;99634.03;5089194;28;20058;-36
2022/07/22 07:41:30;;;;;;;8.20;5.65;;;;;;;37.51;25.42;99636.72;5089415;28;20410;-38
2022/07/22 07:43:55;;;;;;;8.38;5.65;;;;;;;38.35;24.87;99633.09;5088834;28;20399;-38
2022/07/22 07:46:21;;;;;;;10.65;5.70;;;;;;;37.31;25.72;99632.66;5089007;28;20062;-38
2022/07/22 07:48:48;;;;;;;7.63;5.50;;;;;;;37.33;25.77;99639.41;5089410;28;20073;-38
2022/07/22 07:51:13;;;;;;;11.10;5.60;;;;;;;37.63;25.72;99635.63;5089266;28;20052;-38
2022/07/22 07:53:39;;;;;;;7.50;5.60;;;;;;;37.67;25.56;99641.97;5089048;28;20042;-37
2022/07/22 07:56:04;;;;;;;14.23;8.52;;;;;;;37.88;25.45;99643.25;5088922;28;20020;-38
2022/07/22 07:58:30;;;;;;;7.63;5.40;;;;;;;38.24;24.29;99632.28;5081349;28;20059;-38
2022/07/22 08:00:55;;;;;;;7.03;5.40;;;;;;;37.35;25.59;99641.78;5068940;28;20028;-37
2022/07/22 08:03:21;;;;;;;6.85;5.45;;;;;;;36.88;26.56;99637.88;5068655;28;20048;-37
2022/07/22 08:05:46;;;;;;;13.10;6.00;;;;;;;36.94;26.13;99633.56;5068783;28;20024;-37
2022/07/22 08:08:12;;;;;;;9.90;6.50;;;;;;;37.20;26.21;99631.78;5068680;28;20059;-36
2022/07/22 08:10:37;;;;;;;8.90;5.10;;;;;;;37.50;25.27;99634.34;5069266;28;20099;-36
2022/07/22 08:13:04;;;;;;;8.50;5.85;;;;;;;38.44;24.67;99627.94;5068992;28;20094;-37
2022/07/22 08:15:30;;;;;;;6.70;5.57;;;;;;;37.46;25.48;99617.66;5068602;28;20507;-37
2022/07/22 08:17:57;;;;;;;7.97;5.55;;;;;;;37.35;25.64;99630.69;5068280;28;20565;-37
2022/07/22 08:20:24;;;;;;;11.43;5.80;;;;;;;37.00;25.74;99623.72;5067905;28;20052;-38
2022/07/22 08:22:50;;;;;;;8.57;5.47;;;;;;;37.16;25.86;99620.66;5067871;28;20021;-37
2022/07/22 08:25:15;;;;;;;9.55;5.60;;;;;;;37.49;25.71;99613.31;5067944;28;20115;-38
2022/07/22 08:27:41;;;;;;;10.40;6.15;;;;;;;37.41;25.20;99620.81;5076317;28;20095;-37
2022/07/22 08:30:07;;;;;;;7.63;5.63;;;;;;;37.66;25.38;99617.38;5092911;28;20050;-37
2022/07/22 08:32:34;;;;;;;8.55;5.35;;;;;;;37.69;24.84;99619.38;5093431;28;20446;-37
2022/07/22 08:34:59;;;;;;;16.00;5.90;;;;;;;37.74;25.28;99624.56;5092627;28;20479;-37
2022/07/22 08:37:25;;;;;;;11.57;5.93;;;;;;;38.02;24.92;99618.28;5093689;28;20103;-36
2022/07/22 08:39:53;;;;;;;10.48;5.60;;;;;;;37.98;23.98;99611.16;5093354;28;20028;-39
2022/07/22 08:42:21;;;;;;;8.80;5.80;;;;;;;38.44;23.79;99618.78;5075764;28;20428;-36
2022/07/22 08:44:47;;;;;;;6.97;5.40;;;;;;;39.18;23.38;99621.97;5072422;28;20024;-37
2022/07/22 08:47:12;;;;;;;12.30;5.72;;;;;;;39.68;23.24;99621.84;5072600;28;20161;-37
2022/07/22 08:49:39;;;;;;;12.40;6.35;;;;;;;39.18;22.88;99617.19;5072213;28;20032;-37
2022/07/22 08:52:04;;;;;;;10.32;5.50;;;;;;;37.65;24.04;99624.91;5071932;28;20082;-37
2022/07/22 08:54:29;;;;;;;13.38;5.78;;;;;;;37.87;23.76;99611.94;5072487;28;20059;-38
2022/07/22 08:56:55;;;;;;;9.95;5.70;;;;;;;37.98;23.54;99614.72;5072078;28;20444;-37
2022/07/22 08:59:20;;;;;;;11.98;5.57;;;;;;;38.29;23.62;99616.00;5072071;28;20412;-39
2022/07/22 09:02:09;;;;;;;10.32;5.40;;;;;;;38.48;22.97;99605.69;5071975;28;20124;-39
2022/07/22 09:05:02;;;;;;;10.15;5.60;;;;;;;38.77;23.35;99620.44;5072752;28;20025;-38
2022/07/22 09:07:36;;;;;;;14.32;5.75;;;;;;;38.51;23.11;99619.59;5062894;28;20130;-39
2022/07/22 09:10:08;;;;;;;11.75;5.80;;;;;;;38.21;23.19;99616.38;5071808;28;20108;-37
2022/07/22 09:12:34;;;;;;;7.75;5.60;;;;;;;38.22;23.70;99612.44;5072026;28;20028;-37
2022/07/22 09:15:02;;;;;;;9.65;5.70;;;;;;;38.34;23.87;99617.59;5070759;28;20028;-37
2022/07/22 09:17:30;;;;;;;14.18;6.05;;;;;;;38.53;23.50;99619.19;5072606;28;20029;-37
2022/07/22 09:19:57;;;;;;;11.73;6.60;;;;;;;38.51;23.35;99618.81;5084045;28;20396;-38
2022/07/22 09:22:42;;;;;;;10.90;7.03;;;;;;;38.62;23.60;99619.63;5091983;28;20027;-38
2022/07/22 09:25:22;;;;;;;8.68;5.82;;;;;;;38.83;22.77;99618.81;5091510;28;20032;-37
2022/07/22 09:27:50;;;;;;;10.68;5.82;;;;;;;38.84;22.81;99620.44;5092151;28;20024;-38
2022/07/22 09:30:19;;;;;;;10.95;6.20;;;;;;;38.72;22.62;99623.59;5092272;28;20024;-36
2022/07/22 09:32:45;;;;;;;10.13;6.30;;;;;;;38.94;23.22;99613.25;5091873;28;20034;-37
2022/07/22 09:35:11;;;;;;;8.02;5.93;;;;;;;38.81;22.42;99601.75;5092741;28;20115;-37
2022/07/22 09:37:46;;;;;;;13.32;6.38;;;;;;;39.11;22.04;99608.91;5092228;28;20060;-37
2022/07/22 09:40:16;;;;;;;13.63;6.10;;;;;;;39.20;22.70;99606.47;5089921;28;20054;-37
2022/07/22 09:42:52;;;;;;;9.07;5.85;;;;;;;39.61;23.30;99613.53;5091824;28;20032;-36
2022/07/22 09:45:19;;;;;;;11.40;6.18;;;;;;;39.13;23.48;99611.25;5091485;28;20507;-36
2022/07/22 09:47:45;;;;;;;8.57;5.90;;;;;;;38.99;23.20;99607.31;5091621;28;20020;-36
2022/07/22 09:50:26;;;;;;;9.40;5.90;;;;;;;38.95;22.99;99600.94;5091787;28;20032;-36
2022/07/22 09:52:53;;;;;;;7.70;5.93;;;;;;;38.83;23.26;99595.78;5091728;28;20118;-36
2022/07/22 09:55:21;;;;;;;14.35;6.63;;;;;;;39.05;22.25;99605.72;5091440;28;20129;-37
2022/07/22 09:57:49;;;;;;;12.20;6.43;;;;;;;38.84;22.33;99600.97;5089912;28;20457;-36
2022/07/22 10:00:18;;;;;;;13.18;6.68;;;;;;;38.81;22.55;99595.41;5071592;28;20025;-37
2022/07/22 10:02:46;;;;;;;9.90;6.70;;;;;;;38.74;22.09;99584.28;5071470;28;20033;-37
2022/07/22 10:05:12;;;;;;;;;;;;;;;39.40;22.43;99589.34;5071820;28;20161;-37
2022/07/22 10:07:40;;;;;;;13.80;7.35;;;;;;;38.74;22.69;99596.19;5071266;28;19974;-38
2022/07/22 10:10:07;;;;;;;9.57;7.13;;;;;;;38.50;23.21;99581.09;5071469;28;20024;-38
2022/07/22 10:12:34;;;;;;;11.85;7.32;;;;;;;38.50;23.17;99587.44;5071199;28;20054;-36
2022/07/22 10:15:00;;;;;;;14.20;7.38;;;;;;;38.52;22.74;99581.50;5071084;28;20123;-39
2022/07/22 10:17:27;;;;;;;10.63;7.13;;;;;;;38.64;23.02;99583.88;5071065;28;20170;-37
2022/07/22 10:19:52;;;;;;;11.90;6.60;;;;;;;38.99;22.36;99587.84;5071577;28;20440;-37
2022/07/22 10:22:39;;;;;;;11.38;6.97;;;;;;;39.36;22.53;99583.78;5071310;28;20036;-37
2022/07/22 10:25:06;;;;;;;12.13;6.40;;;;;;;40.29;20.70;99567.78;5071102;28;20020;-39
2022/07/22 10:27:44;;;;;;;10.77;7.10;;;;;;;39.39;21.92;99573.81;5073932;28;20103;-38
2022/07/22 10:30:10;;;;;;;14.50;8.15;;;;;;;38.93;22.57;99567.16;5090797;28;20376;-38
2022/07/22 10:32:36;;;;;;;13.40;7.95;;;;;;;38.97;21.96;99572.72;5090838;28;20112;-37
2022/07/22 10:35:03;;;;;;;10.60;7.78;;;;;;;39.11;22.00;99569.94;5090826;28;20111;-34
2022/07/22 10:37:34;;;;;;;14.88;7.93;;;;;;;39.05;22.03;99558.44;5090707;28;20073;-38
2022/07/22 10:40:14;;;;;;;12.80;7.63;;;;;;;39.02;22.58;99558.44;5090662;28;20074;-37
2022/07/22 10:45:28;;;;;;;10.50;7.30;;;;;;;38.70;23.10;99559.25;5090949;28;20039;-35
2022/07/22 10:48:09;;;;;;;10.98;7.60;;;;;;;38.87;22.38;99557.66;5090752;28;20018;-38
2022/07/22 10:50:37;;;;;;;10.68;7.25;;;;;;;38.52;22.32;99550.94;5090676;28;20096;-37
2022/07/22 10:53:18;;;;;;;9.80;7.35;;;;;;;38.72;22.69;99560.44;5091050;28;20035;-36
2022/07/22 10:56:14;;;;;;;12.57;7.80;;;;;;;39.19;22.20;99557.59;5090012;28;20085;-37
2022/07/22 10:58:42;;;;;;;11.07;7.13;;;;;;;39.27;22.41;99561.16;5090087;28;20073;-37
2022/07/22 11:01:10;;;;;;;11.48;6.88;;;;;;;39.37;21.52;99556.72;5090504;28;20326;-37
2022/07/22 11:03:39;;;;;;;12.02;7.13;;;;;;;39.61;20.98;99549.50;5090649;28;20521;-37
2022/07/22 11:06:25;;;;;;;7.60;6.00;;;;;;;40.44;19.79;99549.75;5090703;28;20107;-37
2022/07/22 11:09:00;;;;;;;8.40;6.35;;;;;;;39.18;21.16;99552.44;5090388;28;20503;-37
2022/07/22 11:11:34;;;;;;;11.35;6.20;;;;;;;38.89;21.61;99547.72;5088935;28;20568;-37
2022/07/22 11:14:00;;;;;;;13.52;6.20;;;;;;;39.16;21.78;99549.25;5090197;28;20036;-36
2022/07/22 11:16:27;;;;;;;7.57;6.47;;;;;;;39.55;20.93;99551.91;5090118;28;20024;-37
2022/07/22 11:18:57;;;;;;;9.20;5.80;;;;;;;39.49;20.21;99547.97;5090550;28;20028;-37
2022/07/22 11:21:25;;;;;;;13.00;7.85;;;;;;;39.70;20.66;99538.72;5090078;28;20403;-37
2022/07/22 11:23:53;;;;;;;10.00;6.43;;;;;;;40.00;20.41;99535.34;5090206;28;20035;-37
2022/07/22 11:26:42;;;;;;;9.82;6.35;;;;;;;39.33;20.67;99540.06;5090512;28;20051;-38
2022/07/22 11:29:16;;;;;;;10.45;6.07;;;;;;;39.74;20.25;99528.34;5089607;28;20036;-37
2022/07/22 11:31:42;;;;;;;9.43;6.13;;;;;;;39.90;20.25;99535.44;5090318;28;20031;-38